Time;durP1;ratioP1;P1;durP2;ratioP2;P2;SDS_P1;SDS_P2;PMS_P1;PMS_P2;Temp;Humidity;BMP_temperature;BMP_pressure;BME280_temperature;BME280_humidity;BME280_pressure;Samples;Min_cycle;Max_cycle;Signal;HPM_P1;HPM_P2
2021/04/20 00:00:09;;;;;;;32.70;18.35;;;;;;;7.51;81.67;99142.41;3465434;28;20057;-48
2021/04/20 00:01:50;;;;;;;31.77;18.55;;;;;;;7.44;81.35;99144.91;3469641;28;20049;-52
2021/04/20 00:03:33;;;;;;;32.63;19.33;;;;;;;7.41;81.06;99147.41;3466003;28;20046;-49
2021/04/20 00:05:17;;;;;;;37.20;20.35;;;;;;;7.36;80.86;99148.19;3467053;28;20057;-53
2021/04/20 00:07:00;;;;;;;36.92;20.38;;;;;;;7.31;81.22;99144.66;3467728;28;20057;-50
2021/04/20 00:08:41;;;;;;;41.60;20.13;;;;;;;7.25;81.08;99148.00;3465484;28;20045;-48
2021/04/20 00:10:24;;;;;;;41.55;22.58;;;;;;;7.20;81.11;99149.63;3469451;28;20060;-51
2021/04/20 00:12:06;;;;;;;48.92;24.98;;;;;;;7.12;81.42;99144.28;3466525;28;20049;-50
2021/04/20 00:13:47;;;;;;;49.38;23.98;;;;;;;7.07;81.51;99149.38;3467610;28;20060;-47
2021/04/20 00:15:30;;;;;;;52.88;24.83;;;;;;;7.00;81.78;99150.09;3465373;28;20049;-46
2021/04/20 00:17:12;;;;;;;49.88;25.10;;;;;;;6.94;81.25;99146.50;3467087;28;20391;-47
2021/04/20 00:18:53;;;;;;;55.67;26.48;;;;;;;6.89;81.91;99143.81;3468834;28;20552;-50
2021/04/20 00:20:36;;;;;;;57.15;27.05;;;;;;;6.82;81.99;99131.66;3465106;28;20053;-50
2021/04/20 00:22:17;;;;;;;54.13;26.55;;;;;;;6.78;82.43;99141.03;3468339;28;20422;-47
2021/04/20 00:23:59;;;;;;;55.50;25.30;;;;;;;6.73;82.23;99134.03;3465644;28;20104;-47
2021/04/20 00:25:40;;;;;;;57.50;26.48;;;;;;;6.68;82.29;99131.38;3466265;28;20041;-47
2021/04/20 00:27:22;;;;;;;56.63;27.63;;;;;;;6.62;82.82;99134.69;3467974;28;20076;-47
2021/04/20 00:29:03;;;;;;;57.40;26.70;;;;;;;6.58;83.10;99137.19;3465259;28;20525;-52
2021/04/20 00:30:44;;;;;;;61.65;29.25;;;;;;;6.52;83.31;99132.75;3469055;28;20418;-46
2021/04/20 00:32:26;;;;;;;58.17;26.25;;;;;;;6.47;83.52;99134.34;3465473;28;20052;-50
2021/04/20 00:34:07;;;;;;;66.93;29.08;;;;;;;6.39;83.56;99125.63;3468717;28;20053;-51
2021/04/20 00:35:49;;;;;;;57.95;27.10;;;;;;;6.31;83.75;99122.84;3465641;28;20049;-49
2021/04/20 00:37:30;;;;;;;51.53;26.50;;;;;;;6.23;83.90;99121.84;3466527;28;20077;-52
2021/04/20 00:39:12;;;;;;;47.47;23.58;;;;;;;6.16;84.15;99109.66;3467853;28;20045;-47
2021/04/20 00:40:53;;;;;;;48.90;24.15;;;;;;;6.07;83.77;99115.47;3465247;28;20064;-46
2021/04/20 00:42:45;;;;;;;50.53;24.52;;;;;;;5.99;83.57;99112.69;3468820;28;20054;-49
2021/04/20 00:44:27;;;;;;;41.72;21.75;;;;;;;5.91;84.00;99109.09;3465327;28;20054;-46
2021/04/20 00:46:10;;;;;;;46.13;22.67;;;;;;;5.88;84.44;99111.59;3467370;28;20061;-47
2021/04/20 00:48:10;;;;;;;41.90;20.95;;;;;;;5.81;84.48;99102.84;3466550;28;20053;-50
2021/04/20 00:49:51;;;;;;;39.35;20.77;;;;;;;5.78;84.35;99107.06;3465143;28;20068;-51
2021/04/20 00:51:33;;;;;;;42.83;21.33;;;;;;;5.73;84.68;99110.41;3468784;28;20053;-46
2021/04/20 00:53:15;;;;;;;44.38;22.15;;;;;;;5.69;84.57;99103.44;3465087;28;20049;-49
2021/04/20 00:54:56;;;;;;;39.03;21.15;;;;;;;5.67;84.74;99104.25;3468209;28;20099;-47
2021/04/20 00:56:38;;;;;;;40.83;21.92;;;;;;;5.64;84.87;99105.06;3465482;28;20057;-46
2021/04/20 00:58:20;;;;;;;38.33;21.30;;;;;;;5.62;84.87;99101.53;3465734;28;20538;-54
2021/04/20 01:00:01;;;;;;;37.85;21.00;;;;;;;5.60;85.06;99095.50;3468140;28;20050;-50
2021/04/20 01:01:43;;;;;;;42.25;21.02;;;;;;;5.58;85.36;99092.03;3463681;28;20072;-52
2021/04/20 01:03:25;;;;;;;40.22;21.92;;;;;;;5.59;85.35;99092.88;3468859;28;20079;-47
2021/04/20 01:05:09;;;;;;;39.20;21.58;;;;;;;5.55;85.48;99082.53;3466680;28;20048;-48
2021/04/20 01:06:51;;;;;;;36.50;20.15;;;;;;;5.55;85.76;99087.69;3470692;28;20049;-47
2021/04/20 01:08:35;;;;;;;38.88;20.70;;;;;;;5.52;85.72;99085.03;3468147;28;20058;-48
2021/04/20 01:10:17;;;;;;;39.45;20.88;;;;;;;5.51;86.06;99075.56;3467977;28;20430;-47
2021/04/20 01:11:59;;;;;;;36.03;19.85;;;;;;;5.49;85.49;99082.38;3470984;28;20108;-49
2021/04/20 01:13:40;;;;;;;36.45;19.52;;;;;;;5.46;85.89;99084.88;3465919;28;20088;-49
2021/04/20 01:15:22;;;;;;;35.20;19.92;;;;;;;5.44;85.94;99076.25;3470702;28;20528;-47
2021/04/20 01:17:03;;;;;;;35.05;19.75;;;;;;;5.43;85.89;99084.81;3467616;28;20083;-48
2021/04/20 01:18:45;;;;;;;36.38;20.35;;;;;;;5.40;85.83;99081.28;3469891;28;20511;-48
2021/04/20 01:20:27;;;;;;;34.78;20.00;;;;;;;5.39;86.04;99080.41;3468223;28;20103;-47
2021/04/20 01:22:14;;;;;;;37.47;20.80;;;;;;;5.36;86.08;99073.50;3468359;28;20053;-47
2021/04/20 01:23:58;;;;;;;37.90;20.15;;;;;;;5.35;85.92;99071.75;3470596;28;20053;-54
2021/04/20 01:25:41;;;;;;;35.45;19.70;;;;;;;5.32;85.54;99071.69;3466993;28;20392;-53
2021/04/20 01:27:24;;;;;;;34.95;18.60;;;;;;;5.27;85.86;99063.00;3470437;28;20145;-50
2021/04/20 01:29:06;;;;;;;38.85;20.17;;;;;;;5.24;85.80;99060.34;3467388;28;20049;-49
2021/04/20 01:30:48;;;;;;;33.95;18.77;;;;;;;5.19;85.69;99056.78;3468714;28;20049;-53
2021/04/20 01:32:29;;;;;;;35.60;18.88;;;;;;;5.17;85.70;99051.59;3469135;28;20098;-47
2021/04/20 01:34:11;;;;;;;31.55;18.90;;;;;;;5.15;85.89;99052.41;3467393;28;20052;-48
2021/04/20 01:35:53;;;;;;;34.22;18.00;;;;;;;5.13;85.85;99052.34;3470793;28;20061;-46
2021/04/20 01:37:35;;;;;;;29.40;17.67;;;;;;;5.13;86.00;99048.88;3467347;28;20045;-49
2021/04/20 01:39:16;;;;;;;33.70;18.88;;;;;;;5.13;86.40;99046.31;3470525;28;20057;-51
2021/04/20 01:40:59;;;;;;;35.35;19.00;;;;;;;5.14;86.87;99043.78;3467236;28;20053;-47
2021/04/20 01:42:40;;;;;;;33.67;18.67;;;;;;;5.16;86.71;99046.41;3468414;28;20048;-46
2021/04/20 01:44:22;;;;;;;32.65;17.85;;;;;;;5.16;86.80;99041.25;3469267;28;20041;-50
2021/04/20 01:46:05;;;;;;;35.67;18.83;;;;;;;5.18;87.29;99044.72;3466071;28;20474;-51
2021/04/20 01:47:48;;;;;;;32.22;18.88;;;;;;;5.18;86.97;99040.47;3469897;28;20111;-53
2021/04/20 01:49:29;;;;;;;34.95;19.45;;;;;;;5.20;87.56;99039.63;3467365;28;20073;-50
2021/04/20 01:51:11;;;;;;;34.83;20.33;;;;;;;5.22;87.53;99038.88;3470245;28;20041;-50
2021/04/20 01:52:53;;;;;;;31.50;18.83;;;;;;;5.22;87.55;99036.28;3467218;28;20053;-46
2021/04/20 01:54:34;;;;;;;31.88;18.70;;;;;;;5.23;87.87;99038.00;3467352;28;20046;-53
2021/04/20 01:56:18;;;;;;;37.85;20.25;;;;;;;5.25;88.04;99033.78;3469842;28;20127;-51
2021/04/20 01:58:01;;;;;;;31.85;17.30;;;;;;;5.25;87.44;99035.47;3466721;28;20138;-52
2021/04/20 01:59:43;;;;;;;36.05;20.02;;;;;;;5.25;87.55;99038.91;3470471;28;20100;-52
2021/04/20 02:01:26;;;;;;;31.83;18.25;;;;;;;5.25;87.33;99035.47;3465605;28;20056;-50
2021/04/20 02:03:08;;;;;;;32.60;19.05;;;;;;;5.24;87.68;99034.63;3469930;28;20057;-48
2021/04/20 02:04:50;;;;;;;31.77;18.20;;;;;;;5.25;87.66;99030.34;3467428;28;20049;-48
2021/04/20 02:06:31;;;;;;;33.42;18.70;;;;;;;5.25;87.89;99023.47;3466915;28;20069;-48
2021/04/20 02:08:13;;;;;;;31.33;18.77;;;;;;;5.27;87.54;99033.81;3469562;28;20049;-47
2021/04/20 02:09:55;;;;;;;34.25;19.52;;;;;;;5.26;87.88;99026.94;3466729;28;20050;-48
2021/04/20 02:11:37;;;;;;;32.03;18.88;;;;;;;5.26;87.79;99025.25;3470899;28;20148;-47
2021/04/20 02:13:20;;;;;;;33.22;18.58;;;;;;;5.26;87.44;99030.38;3465969;28;20541;-52
2021/04/20 02:15:03;;;;;;;35.42;19.30;;;;;;;5.26;87.18;99029.53;3469592;28;20053;-47
2021/04/20 02:16:44;;;;;;;37.83;19.63;;;;;;;5.24;87.05;99026.03;3465916;28;20150;-47
2021/04/20 02:18:27;;;;;;;33.33;18.42;;;;;;;5.22;86.91;99028.56;3468225;28;20060;-47
2021/04/20 02:20:11;;;;;;;32.20;18.92;;;;;;;5.20;87.09;99022.53;3458239;28;20534;-50
2021/04/20 02:21:53;;;;;;;36.08;19.35;;;;;;;5.16;86.67;99020.69;3460736;28;20489;-47
2021/04/20 02:23:35;;;;;;;34.25;17.85;;;;;;;5.12;86.29;99021.47;3470124;28;20502;-46
2021/04/20 02:25:18;;;;;;;30.75;18.80;;;;;;;5.09;86.50;99014.53;3466612;28;20091;-48
2021/04/20 02:27:01;;;;;;;28.30;17.38;;;;;;;5.08;86.45;99012.81;3469143;28;20064;-51
2021/04/20 02:28:42;;;;;;;31.23;17.13;;;;;;;5.05;85.88;99015.28;3467281;28;20488;-51
2021/04/20 02:30:27;;;;;;;32.45;15.77;;;;;;;5.01;85.74;99017.72;3467710;28;20046;-52
2021/04/20 02:32:08;;;;;;;;;;;;;;;4.99;86.28;99015.16;3468929;28;20450;-53
2021/04/20 02:33:50;;;;;;;27.73;16.13;;;;;;;4.96;86.49;99009.94;3466388;28;19925;-52
2021/04/20 02:35:32;;;;;;;28.92;16.88;;;;;;;4.94;86.91;99015.03;3469739;28;20510;-51
2021/04/20 02:37:17;;;;;;;27.10;16.58;;;;;;;4.92;86.59;99011.56;3466221;28;20064;-52
2021/04/20 02:38:58;;;;;;;28.27;16.45;;;;;;;4.89;86.13;99006.31;3469115;28;20056;-50
2021/04/20 02:40:41;;;;;;;33.50;16.88;;;;;;;4.88;86.46;99014.88;3468433;28;20053;-51
2021/04/20 02:42:25;;;;;;;31.27;16.98;;;;;;;4.88;86.77;99014.88;3467171;28;20061;-50
2021/04/20 02:44:08;;;;;;;28.98;16.88;;;;;;;4.92;87.10;99015.81;3469012;28;20403;-51
2021/04/20 02:45:52;;;;;;;28.08;15.70;;;;;;;4.94;87.64;99014.16;3466397;28;20061;-51
2021/04/20 02:47:34;;;;;;;;;;;;;;;4.95;87.60;99011.63;3469829;28;20057;-50
2021/04/20 02:49:16;;;;;;;26.20;15.55;;;;;;;4.95;87.94;99009.06;3465378;28;19925;-53
2021/04/20 02:50:59;;;;;;;28.92;15.95;;;;;;;4.94;87.70;99012.44;3467935;28;20542;-53
2021/04/20 02:52:41;;;;;;;26.17;16.50;;;;;;;4.95;87.97;99005.59;3467342;28;20518;-50
2021/04/20 02:54:23;;;;;;;27.88;15.70;;;;;;;4.94;87.86;99006.44;3466149;28;21101;-52
2021/04/20 02:56:05;;;;;;;30.65;16.45;;;;;;;4.90;87.65;99010.66;3469718;28;20061;-54
2021/04/20 02:57:50;;;;;;;29.75;16.92;;;;;;;4.90;87.66;99013.22;3465922;28;20430;-51
2021/04/20 02:59:33;;;;;;;29.60;15.73;;;;;;;4.88;88.05;99011.41;3469239;28;20057;-51
2021/04/20 03:01:18;;;;;;;26.98;15.50;;;;;;;4.87;88.16;99014.84;3466367;28;20529;-49
2021/04/20 03:03:01;;;;;;;25.40;15.35;;;;;;;4.86;88.15;99013.94;3465368;28;20057;-52
2021/04/20 03:04:43;;;;;;;29.58;16.55;;;;;;;4.85;88.03;99014.78;3469493;28;20053;-46
2021/04/20 03:06:24;;;;;;;25.50;16.20;;;;;;;4.86;88.48;99011.38;3465922;28;20049;-49
2021/04/20 03:08:06;;;;;;;27.10;15.15;;;;;;;4.87;88.64;99017.41;3469621;28;20450;-48
2021/04/20 03:09:49;;;;;;;28.27;15.95;;;;;;;4.89;88.85;99015.75;3465945;28;20057;-47
2021/04/20 03:11:36;;;;;;;26.77;16.13;;;;;;;4.90;88.74;99012.31;3468687;28;20056;-57
2021/04/20 03:13:18;;;;;;;25.77;15.55;;;;;;;4.91;88.99;99014.06;3466504;28;20637;-50
2021/04/20 03:15:01;;;;;;;24.95;15.77;;;;;;;4.93;89.15;99012.41;3466014;28;20395;-51
2021/04/20 03:16:42;;;;;;;28.50;16.75;;;;;;;4.97;89.18;99009.06;3468588;28;20068;-53
2021/04/20 03:18:24;;;;;;;27.60;16.60;;;;;;;4.98;89.20;99009.13;3464527;28;20060;-50
2021/04/20 03:20:07;;;;;;;30.63;16.58;;;;;;;5.01;89.49;99017.72;3469453;28;20075;-49
2021/04/20 03:21:50;;;;;;;33.47;18.27;;;;;;;5.02;89.33;99009.22;3465919;28;20068;-47
2021/04/20 03:23:34;;;;;;;29.73;17.42;;;;;;;5.05;89.54;99007.59;3467212;28;20366;-47
2021/04/20 03:25:20;;;;;;;29.52;17.13;;;;;;;5.08;89.51;99011.94;3467766;28;20060;-47
2021/04/20 03:27:02;;;;;;;30.02;16.92;;;;;;;5.10;89.84;99008.56;3465691;28;20053;-53
2021/04/20 03:28:44;;;;;;;29.27;16.58;;;;;;;5.13;89.67;99010.31;3469634;28;20065;-51
2021/04/20 03:30:28;;;;;;;30.33;16.45;;;;;;;5.16;89.90;99013.88;3466009;28;20081;-51
2021/04/20 03:32:11;;;;;;;31.85;16.48;;;;;;;5.20;89.65;99012.25;3469285;28;20053;-49
2021/04/20 03:33:59;;;;;;;26.58;15.85;;;;;;;5.24;89.94;99008.91;3466136;28;20085;-48
2021/04/20 03:35:49;;;;;;;25.98;15.95;;;;;;;5.28;90.08;99010.72;3467167;28;20128;-51
2021/04/20 03:37:32;;;;;;;29.15;16.05;;;;;;;5.33;90.00;99014.25;3469079;28;20494;-51
2021/04/20 03:39:16;;;;;;;27.30;16.13;;;;;;;5.37;90.22;99012.63;3466154;28;20046;-52
2021/04/20 03:41:02;;;;;;;29.38;17.38;;;;;;;5.42;90.59;99013.63;3468888;28;20057;-51
2021/04/20 03:42:47;;;;;;;25.95;16.15;;;;;;;5.47;90.33;99006.00;3465011;28;20438;-52
2021/04/20 03:44:38;;;;;;;28.80;16.50;;;;;;;5.52;90.28;99010.44;3466510;28;20064;-51
2021/04/20 03:46:22;;;;;;;27.13;15.50;;;;;;;5.58;90.34;99013.97;3467956;28;20515;-53
2021/04/20 03:48:11;;;;;;;27.42;15.38;;;;;;;5.63;90.37;99010.66;3464144;28;20503;-53
2021/04/20 03:49:56;;;;;;;26.30;15.65;;;;;;;5.68;90.30;99010.78;3469018;28;20064;-54
2021/04/20 03:51:42;;;;;;;26.77;15.15;;;;;;;5.72;90.44;99008.28;3465097;28;20107;-53
2021/04/20 03:53:25;;;;;;;27.05;15.20;;;;;;;5.78;90.52;99004.97;3467080;28;20054;-51
2021/04/20 03:55:11;;;;;;;29.05;15.45;;;;;;;5.83;90.55;99008.53;3466765;28;20053;-53
2021/04/20 03:56:55;;;;;;;27.40;14.98;;;;;;;5.88;90.53;99008.63;3465076;28;20523;-47
2021/04/20 03:58:36;;;;;;;;;;;;;;;5.92;90.09;99006.19;3455958;28;20483;-48
2021/04/20 04:00:21;;;;;;;25.73;15.32;;;;;;;5.99;90.50;99011.44;3464285;28;19978;-47
2021/04/20 04:02:05;;;;;;;26.50;15.48;;;;;;;6.03;90.17;99005.50;3467590;28;20053;-53
2021/04/20 04:03:48;;;;;;;26.38;15.40;;;;;;;6.10;90.51;99000.53;3467683;28;20060;-53
2021/04/20 04:05:31;;;;;;;26.38;14.68;;;;;;;6.16;90.38;98991.22;3465529;28;20111;-52
2021/04/20 04:07:16;;;;;;;27.45;16.23;;;;;;;6.23;90.58;98996.50;3468508;28;20529;-53
2021/04/20 04:08:58;;;;;;;27.27;15.25;;;;;;;6.30;90.41;99000.94;3465395;28;20561;-53
2021/04/20 04:10:40;;;;;;;28.35;16.35;;;;;;;6.40;90.66;98985.66;3468909;28;20059;-51
2021/04/20 04:12:24;;;;;;;26.95;15.55;;;;;;;6.50;90.65;98990.16;3464930;28;20057;-47
2021/04/20 04:14:07;;;;;;;;;;;;;;;6.60;90.43;98984.31;3465684;28;20422;-47
2021/04/20 04:15:52;;;;;;;28.15;16.35;;;;;;;6.74;90.41;98991.44;3467602;28;19925;-47
2021/04/20 04:17:35;;;;;;;24.63;14.98;;;;;;;6.85;90.33;98983.03;3465278;28;20510;-46
2021/04/20 04:19:18;;;;;;;24.92;15.30;;;;;;;6.99;89.94;98985.03;3468917;28;20053;-47
2021/04/20 04:21:04;;;;;;;23.73;15.02;;;;;;;7.08;89.64;98986.03;3465156;28;20045;-47
2021/04/20 04:22:53;;;;;;;24.52;15.40;;;;;;;7.20;88.75;98977.66;3467920;28;20053;-51
2021/04/20 04:24:38;;;;;;;23.50;14.20;;;;;;;7.32;88.51;98983.84;3467008;28;20053;-53
2021/04/20 04:26:22;;;;;;;25.05;14.13;;;;;;;7.42;87.55;98981.44;3465763;28;20099;-53
2021/04/20 04:28:06;;;;;;;21.85;13.93;;;;;;;7.52;86.74;98979.84;3468579;28;20057;-51
2021/04/20 04:29:48;;;;;;;;;;;;;;;7.61;86.74;98977.41;3465721;28;20050;-54
2021/04/20 04:31:32;;;;;;;22.70;13.70;;;;;;;7.68;86.12;98974.91;3468107;28;19979;-54
2021/04/20 04:33:14;;;;;;;22.98;14.75;;;;;;;7.74;85.36;98972.41;3466224;28;20046;-46
2021/04/20 04:34:57;;;;;;;20.55;13.00;;;;;;;7.77;84.91;98969.88;3466725;28;20054;-47
2021/04/20 04:36:40;;;;;;;19.90;13.20;;;;;;;7.81;83.77;98971.63;3466205;28;20076;-50
2021/04/20 04:38:22;;;;;;;21.77;14.05;;;;;;;7.88;83.84;98970.88;3465179;28;20053;-51
2021/04/20 04:40:06;;;;;;;22.77;13.48;;;;;;;7.96;84.15;98977.00;3470229;28;20050;-49
2021/04/20 04:41:48;;;;;;;30.38;14.95;;;;;;;8.04;83.79;98974.50;3467672;28;20053;-47
2021/04/20 04:43:29;;;;;;;20.58;13.27;;;;;;;8.10;83.09;98978.91;3470639;28;20057;-48
2021/04/20 04:45:12;;;;;;;20.45;13.48;;;;;;;8.17;82.84;98966.06;3461193;28;20057;-47
2021/04/20 04:46:55;;;;;;;23.20;13.73;;;;;;;8.22;81.97;98968.72;3459280;28;20050;-54
2021/04/20 04:48:37;;;;;;;19.33;12.23;;;;;;;8.26;81.68;98969.63;3470071;28;20058;-48
2021/04/20 04:50:20;;;;;;;19.02;12.57;;;;;;;8.32;81.34;98973.13;3467547;28;20045;-47
2021/04/20 04:52:02;;;;;;;19.30;12.65;;;;;;;8.40;81.13;98965.47;3470749;28;20422;-47
2021/04/20 04:53:45;;;;;;;20.45;13.25;;;;;;;8.46;80.83;98964.66;3467278;28;20053;-48
2021/04/20 04:55:26;;;;;;;18.98;12.00;;;;;;;8.49;80.37;98967.28;3469527;28;20060;-47
2021/04/20 04:57:11;;;;;;;21.75;12.95;;;;;;;8.50;79.94;98969.91;3460807;28;20093;-49
2021/04/20 04:58:54;;;;;;;18.35;12.32;;;;;;;8.50;79.98;98962.16;3460677;28;20061;-51
2021/04/20 05:00:36;;;;;;;20.77;13.23;;;;;;;8.49;79.86;98960.41;3470781;28;20053;-50
2021/04/20 05:02:18;;;;;;;19.60;12.63;;;;;;;8.50;79.84;98959.56;3467518;28;20279;-52
2021/04/20 05:04:06;;;;;;;18.13;12.73;;;;;;;8.49;80.17;98963.00;3471075;28;20411;-52
2021/04/20 05:05:54;;;;;;;20.70;12.95;;;;;;;8.48;79.77;98963.84;3467783;28;20130;-55
2021/04/20 05:07:36;;;;;;;21.23;12.32;;;;;;;8.47;79.81;98958.66;3467561;28;20127;-51
2021/04/20 05:09:19;;;;;;;22.02;14.02;;;;;;;8.46;79.96;98962.94;3469497;28;20100;-52
2021/04/20 05:11:01;;;;;;;23.40;12.93;;;;;;;8.47;79.70;98961.25;3467170;28;20423;-51
2021/04/20 05:12:43;;;;;;;21.42;13.02;;;;;;;8.48;79.80;98957.78;3470621;28;20049;-54
2021/04/20 05:14:25;;;;;;;21.13;14.05;;;;;;;8.48;79.51;98962.97;3466001;28;20085;-53
2021/04/20 05:16:08;;;;;;;23.25;14.43;;;;;;;8.45;79.93;98956.06;3470621;28;20049;-51
2021/04/20 05:17:51;;;;;;;21.60;13.63;;;;;;;8.46;79.94;98955.19;3460615;28;20404;-51
2021/04/20 05:19:34;;;;;;;22.98;14.93;;;;;;;8.46;79.99;98955.19;3459830;28;20618;-51
2021/04/20 05:21:16;;;;;;;21.55;13.93;;;;;;;8.48;79.98;98960.38;3469406;28;20616;-54
2021/04/20 05:22:58;;;;;;;24.25;14.75;;;;;;;8.51;80.75;98960.41;3467025;28;20566;-53
2021/04/20 05:24:39;;;;;;;23.00;14.77;;;;;;;8.57;80.98;98963.94;3470663;28;20061;-52
2021/04/20 05:26:20;;;;;;;24.85;13.93;;;;;;;8.67;80.81;98953.69;3467178;28;20095;-53
2021/04/20 05:28:03;;;;;;;20.92;14.45;;;;;;;8.73;80.10;98956.31;3469326;28;20140;-54
2021/04/20 05:29:44;;;;;;;25.70;14.60;;;;;;;8.78;80.16;98960.69;3468492;28;20057;-54
2021/04/20 05:31:26;;;;;;;21.92;13.20;;;;;;;8.84;80.17;98961.63;3468302;28;20591;-52
2021/04/20 05:33:08;;;;;;;20.10;12.63;;;;;;;8.95;80.56;98962.56;3469321;28;20049;-48
2021/04/20 05:34:50;;;;;;;22.83;15.07;;;;;;;9.04;79.79;98957.47;3465846;28;20053;-47
2021/04/20 05:36:32;;;;;;;21.75;13.48;;;;;;;9.14;79.15;98955.81;3468673;28;20108;-48
2021/04/20 05:38:17;;;;;;;22.83;13.55;;;;;;;9.23;78.98;98955.03;3467171;28;20629;-55
2021/04/20 05:40:08;;;;;;;20.83;13.65;;;;;;;9.28;78.75;98961.97;3468598;28;20049;-50
2021/04/20 05:41:49;;;;;;;24.55;15.45;;;;;;;9.31;77.99;98959.41;3468136;28;20053;-48
2021/04/20 05:43:30;;;;;;;27.88;14.98;;;;;;;9.32;78.04;98961.13;3482123;22;20056;-50
2021/04/20 05:45:14;;;;;;;26.38;14.73;;;;;;;9.33;77.81;98954.25;3484138;28;20094;-47
2021/04/20 05:46:56;;;;;;;21.10;13.85;;;;;;;9.34;77.83;98956.81;3481008;28;20041;-47
2021/04/20 05:48:38;;;;;;;22.35;14.57;;;;;;;9.35;77.67;98961.16;3483037;28;20422;-51
2021/04/20 05:50:23;;;;;;;25.00;15.03;;;;;;;9.40;77.88;98953.44;3480334;28;20053;-47
2021/04/20 05:52:05;;;;;;;19.80;12.95;;;;;;;9.40;77.45;98963.78;3480134;28;20068;-47
2021/04/20 05:53:47;;;;;;;21.25;14.00;;;;;;;9.42;78.30;98956.94;3482862;28;20049;-51
2021/04/20 05:55:28;;;;;;;20.33;13.82;;;;;;;9.48;78.61;98956.94;3480489;28;20080;-47
2021/04/20 05:57:10;;;;;;;21.95;14.05;;;;;;;9.55;77.58;98963.03;3483642;28;20060;-47
2021/04/20 05:58:52;;;;;;;19.50;13.07;;;;;;;9.60;78.90;98966.53;3480379;28;20512;-48
2021/04/20 06:00:34;;;;;;;22.70;13.55;;;;;;;9.63;77.36;98952.72;3483440;28;20049;-48
2021/04/20 06:02:16;;;;;;;20.33;13.63;;;;;;;9.65;76.89;98953.63;3480881;28;20529;-47
2021/04/20 06:03:58;;;;;;;20.15;14.15;;;;;;;9.68;76.84;98951.03;3479445;28;20083;-47
2021/04/20 06:05:40;;;;;;;24.65;14.70;;;;;;;9.69;76.63;98953.63;3482893;28;20530;-51
2021/04/20 06:07:22;;;;;;;20.15;13.45;;;;;;;9.70;75.98;98951.91;3480474;28;20049;-52
2021/04/20 06:09:06;;;;;;;18.17;12.65;;;;;;;9.71;76.14;98945.88;3483833;28;20068;-51
2021/04/20 06:10:47;;;;;;;;;;;;;;;9.72;76.17;98937.25;3479521;28;20523;-51
2021/04/20 06:12:30;;;;;;;22.08;13.48;;;;;;;9.75;75.98;98945.03;3483937;28;20346;-48
2021/04/20 06:14:11;;;;;;;19.80;12.88;;;;;;;9.76;75.47;98946.75;3479044;28;20048;-47
2021/04/20 06:15:53;;;;;;;20.10;13.00;;;;;;;9.79;75.76;98939.03;3480450;28;20053;-48
2021/04/20 06:17:37;;;;;;;21.35;14.75;;;;;;;9.84;75.47;98939.03;3483583;28;20056;-47
2021/04/20 06:19:19;;;;;;;24.98;13.57;;;;;;;9.86;75.18;98933.00;3478276;28;20045;-47
2021/04/20 06:21:01;;;;;;;20.70;13.55;;;;;;;9.97;76.08;98937.38;3483451;28;20095;-48
2021/04/20 06:22:47;;;;;;;20.73;13.65;;;;;;;10.08;74.92;98928.75;3478990;28;20045;-50
2021/04/20 06:24:31;;;;;;;21.58;14.23;;;;;;;10.20;74.58;98929.69;3481876;28;20055;-50
2021/04/20 06:26:15;;;;;;;22.48;13.65;;;;;;;10.27;74.09;98928.84;3482149;28;20076;-52
2021/04/20 06:27:57;;;;;;;19.70;12.38;;;;;;;10.35;75.79;98921.94;3478972;28;20289;-54
2021/04/20 06:29:38;;;;;;;24.48;13.27;;;;;;;10.44;74.47;98918.50;3469632;28;20529;-50
2021/04/20 06:31:22;;;;;;;22.27;13.57;;;;;;;10.55;73.92;98921.97;3474673;28;20518;-47
2021/04/20 06:33:05;;;;;;;21.40;13.23;;;;;;;10.66;72.08;98920.25;3483768;28;20056;-48
2021/04/20 06:34:47;;;;;;;20.00;12.73;;;;;;;10.81;73.17;98923.72;3479887;28;20088;-47
2021/04/20 06:36:29;;;;;;;19.48;12.50;;;;;;;10.99;71.74;98922.91;3480318;28;20045;-47
2021/04/20 06:38:12;;;;;;;17.13;10.80;;;;;;;11.11;70.54;98920.28;3482248;28;20057;-48
2021/04/20 06:39:53;;;;;;;18.02;11.60;;;;;;;11.20;72.02;98928.06;3480098;28;20076;-48
2021/04/20 06:41:40;;;;;;;19.10;12.32;;;;;;;11.33;70.95;98922.88;3483689;28;20144;-51
2021/04/20 06:43:25;;;;;;;15.13;11.57;;;;;;;11.50;71.92;98921.13;3478629;28;20052;-51
2021/04/20 06:45:11;;;;;;;16.48;11.93;;;;;;;11.69;69.75;98921.06;3482930;28;20106;-54
2021/04/20 06:46:56;;;;;;;19.77;12.02;;;;;;;11.87;70.17;98913.22;3481559;28;20048;-47
2021/04/20 06:48:42;;;;;;;16.35;12.07;;;;;;;11.97;68.71;98916.63;3479264;28;20586;-51
2021/04/20 06:50:26;;;;;;;16.77;11.15;;;;;;;12.02;70.24;98917.47;3483480;28;20513;-47
2021/04/20 06:52:17;;;;;;;17.00;12.05;;;;;;;12.12;67.73;98916.56;3479696;28;20052;-48
2021/04/20 06:54:05;;;;;;;18.38;12.32;;;;;;;12.22;67.54;98914.78;3469976;28;20060;-50
2021/04/20 06:55:55;;;;;;;15.20;10.90;;;;;;;12.26;68.51;98918.22;3481075;28;20079;-53
2021/04/20 06:57:41;;;;;;;20.10;12.43;;;;;;;12.18;66.77;98920.88;3480154;28;20077;-50
2021/04/20 06:59:30;;;;;;;15.48;10.80;;;;;;;12.05;66.86;98914.88;3483196;28;20084;-51
2021/04/20 07:01:18;;;;;;;13.95;10.55;;;;;;;11.90;67.83;98920.13;3478583;28;20056;-46
2021/04/20 07:03:07;;;;;;;16.23;11.38;;;;;;;11.80;69.20;98914.13;3480428;28;20514;-52
2021/04/20 07:04:51;;;;;;;14.02;10.27;;;;;;;11.85;68.90;98916.69;3481505;28;20422;-48
2021/04/20 07:06:42;;;;;;;16.50;10.43;;;;;;;11.87;68.07;98913.22;3479638;28;20072;-49
2021/04/20 07:08:31;;;;;;;15.10;9.93;;;;;;;11.91;68.86;98909.72;3483099;28;20536;-51
2021/04/20 07:10:18;;;;;;;14.20;10.10;;;;;;;11.91;68.26;98904.53;3480624;28;20045;-52
2021/04/20 07:12:01;;;;;;;14.60;9.90;;;;;;;11.87;68.12;98902.84;3481351;28;20041;-52
2021/04/20 07:13:46;;;;;;;14.35;9.90;;;;;;;11.87;69.93;98902.84;3480462;28;20056;-51
2021/04/20 07:15:31;;;;;;;15.10;11.15;;;;;;;11.84;68.42;98909.78;3479874;28;20079;-51
2021/04/20 07:17:28;;;;;;;12.07;9.73;;;;;;;11.76;68.86;98899.38;3482915;28;20057;-53
2021/04/20 07:19:25;;;;;;;14.93;9.93;;;;;;;11.79;69.06;98908.03;3478505;28;20060;-48
2021/04/20 07:21:21;;;;;;;15.63;9.80;;;;;;;11.82;68.64;98908.03;3478616;28;20057;-48
2021/04/20 07:23:27;;;;;;;13.40;9.50;;;;;;;11.86;68.27;98910.63;3483243;28;20088;-48
2021/04/20 07:25:17;;;;;;;9.93;7.80;;;;;;;11.87;66.79;98910.63;3479634;28;20099;-48
2021/04/20 07:27:13;;;;;;;10.88;8.25;;;;;;;11.88;66.78;98903.69;3479959;28;20057;-48
2021/04/20 07:29:07;;;;;;;10.05;7.65;;;;;;;11.87;66.42;98909.75;3482068;28;20056;-53
2021/04/20 07:30:58;;;;;;;12.25;9.25;;;;;;;11.91;67.24;98903.69;3477995;28;20055;-50
2021/04/20 07:32:56;;;;;;;10.40;7.80;;;;;;;11.91;66.47;98899.34;3481820;28;20547;-50
2021/04/20 07:34:41;;;;;;;9.82;7.05;;;;;;;11.86;66.38;98905.44;3481423;28;20518;-53
2021/04/20 07:36:27;;;;;;;9.02;6.88;;;;;;;11.82;66.63;98912.38;3478130;28;20575;-49
2021/04/20 07:38:20;;;;;;;9.63;6.57;;;;;;;11.75;66.44;98901.13;3482940;28;20057;-51
2021/04/20 07:40:15;;;;;;;9.15;6.45;;;;;;;11.73;66.46;98894.19;3478628;28;20053;-52
2021/04/20 07:42:03;;;;;;;8.65;6.20;;;;;;;11.75;66.59;98905.47;3478308;28;20053;-52
2021/04/20 07:44:13;;;;;;;8.82;6.18;;;;;;;11.85;66.21;98901.94;3482275;28;20519;-49
2021/04/20 07:46:00;;;;;;;7.15;5.72;;;;;;;11.93;64.55;98902.78;3479393;28;20106;-51
2021/04/20 07:47:48;;;;;;;7.95;5.70;;;;;;;11.99;64.56;98897.59;3479294;28;20127;-52
2021/04/20 07:49:36;;;;;;;6.97;5.25;;;;;;;12.11;64.82;98894.03;3482791;28;20143;-51
2021/04/20 07:51:25;;;;;;;8.45;5.32;;;;;;;12.31;63.99;98893.94;3479246;28;20422;-47
2021/04/20 07:53:19;;;;;;;7.65;5.38;;;;;;;12.54;63.62;98887.72;3482585;28;20049;-48
2021/04/20 07:55:07;;;;;;;9.23;5.47;;;;;;;12.73;61.74;98883.25;3479743;28;20084;-48
2021/04/20 07:56:56;;;;;;;7.70;6.15;;;;;;;12.90;62.36;98889.22;3479454;28;20064;-49
2021/04/20 07:58:42;;;;;;;6.50;5.03;;;;;;;13.00;61.26;98884.81;3468896;28;20049;-49
2021/04/20 08:00:34;;;;;;;6.68;5.13;;;;;;;13.17;61.41;98878.56;3476275;28;20102;-48
2021/04/20 08:02:30;;;;;;;7.15;5.72;;;;;;;13.40;61.16;98879.19;3481791;28;20151;-51
2021/04/20 08:04:48;;;;;;;7.40;5.70;;;;;;;13.49;59.09;98876.50;3480444;28;20051;-54